Colorado Springs, Colorado
Current Conditions -  °F | °C
As of 8:54 AM on Monday 24 Nov 2014 (Local Time) from KCOS Reporting Station
Broken Clouds Broken Clouds  
Wind Chill: 21°   Ceiling: 14000
Heat Index: 34°   Visibility: 10mi
Dew Point:   Wind: 26mph
Humidity: 32%   Direction: 310°NW
Pressure: 29.92"   Gusts: 33mph
Location:  38.83°N, 104.82°W
Report Text: KCOS 241554Z 31023G29KT 10SM FEW070 BKN140 BKN220 01/M14 A2992 RMK AO2 PK WND 32031/1526 SLP168 T00111139
Loading
Personal Weather Stations






























Interactive Weather Map New forecast layout! Learn more

10-Day Weather Forecast

Advertisements
Track Severe Weather on mobile